createdAt,value
2023-03-02T00:01:11.434Z,1.10
2023-03-02T00:03:40.764Z,1.10
2023-03-02T00:06:09.692Z,1.10
2023-03-02T00:08:38.229Z,1.10
2023-03-02T00:11:05.294Z,1.10
2023-03-02T00:13:34.553Z,1.10
2023-03-02T00:16:01.508Z,1.10
2023-03-02T00:18:28.730Z,1.10
2023-03-02T00:20:55.519Z,1.10
2023-03-02T00:23:22.271Z,1.10
2023-03-02T00:25:49.037Z,1.10
2023-03-02T00:28:15.986Z,1.20
2023-03-02T00:30:42.925Z,1.20
2023-03-02T00:33:09.820Z,1.20
2023-03-02T00:35:41.279Z,1.20
2023-03-02T00:38:08.606Z,1.20
2023-03-02T00:40:36.324Z,1.30
2023-03-02T00:43:03.762Z,1.30
2023-03-02T00:45:30.777Z,1.30
2023-03-02T00:47:57.588Z,1.30
2023-03-02T00:50:24.643Z,1.30
2023-03-02T00:52:51.405Z,1.30
2023-03-02T00:55:18.304Z,1.30
2023-03-02T00:57:45.083Z,1.30
2023-03-02T01:00:12.191Z,1.30
2023-03-02T01:02:39.168Z,1.30
2023-03-02T01:05:06.302Z,1.20
2023-03-02T01:07:33.703Z,1.20
2023-03-02T01:10:00.454Z,1.20
2023-03-02T01:12:27.279Z,1.20
2023-03-02T01:14:54.008Z,1.20
2023-03-02T01:17:20.783Z,1.20
2023-03-02T01:19:47.584Z,1.20
2023-03-02T01:22:14.860Z,1.20
2023-03-02T01:24:41.639Z,1.20
2023-03-02T01:27:09.465Z,1.20
2023-03-02T01:29:37.194Z,1.20
2023-03-02T01:32:04.563Z,1.20
2023-03-02T01:34:31.585Z,1.20
2023-03-02T01:36:58.385Z,1.20
2023-03-02T01:39:25.322Z,1.30
2023-03-02T01:41:53.361Z,1.20
2023-03-02T01:44:35.368Z,1.20
2023-03-02T01:47:05.109Z,1.20
2023-03-02T01:49:37.445Z,1.30
2023-03-02T01:52:04.505Z,1.30
2023-03-02T01:54:31.501Z,1.20
2023-03-02T01:57:01.554Z,1.20
2023-03-02T01:59:31.645Z,1.20
2023-03-02T02:02:03.349Z,1.10
2023-03-02T02:04:32.364Z,1.20
2023-03-02T02:07:02.706Z,1.20
2023-03-02T02:09:36.588Z,1.20
2023-03-02T02:12:03.452Z,1.10
2023-03-02T02:14:30.262Z,1.20
2023-03-02T02:16:57.190Z,1.20
2023-03-02T02:19:29.576Z,1.20
2023-03-02T02:21:56.612Z,1.20
2023-03-02T02:24:32.012Z,1.20
2023-03-02T02:26:58.985Z,1.20
2023-03-02T02:29:34.040Z,1.20
2023-03-02T02:32:14.576Z,1.20
2023-03-02T02:34:44.533Z,1.20
2023-03-02T02:37:26.112Z,1.10
2023-03-02T02:39:53.145Z,1.20
2023-03-02T02:42:32.862Z,1.10
2023-03-02T02:45:03.930Z,1.20
2023-03-02T02:47:31.530Z,1.20
2023-03-02T02:49:58.873Z,1.10
2023-03-02T02:52:28.250Z,1.10
2023-03-02T02:54:57.785Z,1.10
2023-03-02T02:57:28.493Z,1.10
2023-03-02T02:59:58.670Z,1.10
2023-03-02T03:02:28.892Z,1.10
2023-03-02T03:04:55.682Z,1.10
2023-03-02T03:07:24.791Z,1.00
2023-03-02T03:09:57.468Z,1.00
2023-03-02T03:12:26.663Z,1.00
2023-03-02T03:14:53.931Z,0.90
2023-03-02T03:17:20.701Z,0.80
2023-03-02T03:19:47.821Z,0.80
2023-03-02T03:22:17.115Z,0.90
2023-03-02T03:24:45.736Z,0.90
2023-03-02T03:27:16.022Z,0.90
2023-03-02T03:29:45.721Z,0.90
2023-03-02T03:32:12.555Z,0.90
2023-03-02T03:34:39.494Z,0.80
2023-03-02T03:37:11.237Z,0.80
2023-03-02T03:39:38.495Z,0.80
2023-03-02T03:42:05.777Z,0.80
2023-03-02T03:44:33.130Z,0.80
2023-03-02T03:47:00.316Z,0.80
2023-03-02T03:49:27.999Z,0.80
2023-03-02T03:51:55.104Z,0.80
2023-03-02T03:54:21.931Z,0.80
2023-03-02T03:56:50.413Z,0.80
2023-03-02T03:59:20.488Z,0.80
2023-03-02T04:01:58.649Z,0.80
2023-03-02T04:04:31.600Z,0.80
2023-03-02T04:06:58.848Z,0.70
2023-03-02T04:09:26.460Z,0.70
2023-03-02T04:11:55.462Z,0.70
2023-03-02T04:14:24.131Z,0.70
2023-03-02T04:16:52.181Z,0.80
2023-03-02T04:19:19.171Z,0.70
2023-03-02T04:21:48.818Z,0.70
2023-03-02T04:24:17.260Z,0.70
2023-03-02T04:26:44.705Z,0.70
2023-03-02T04:29:12.964Z,0.60
2023-03-02T04:31:40.578Z,0.60
2023-03-02T04:34:08.672Z,0.70
2023-03-02T04:36:38.704Z,0.70
2023-03-02T04:39:07.019Z,0.60
2023-03-02T04:41:34.329Z,0.60
2023-03-02T04:44:01.216Z,0.60
2023-03-02T04:46:28.414Z,0.70
2023-03-02T04:48:55.632Z,0.70
2023-03-02T04:51:31.683Z,0.70
2023-03-02T04:54:02.320Z,0.70
2023-03-02T04:56:29.137Z,0.70
2023-03-02T04:58:56.521Z,0.70
2023-03-02T05:01:24.042Z,0.70
2023-03-02T05:03:50.968Z,0.60
2023-03-02T05:06:18.218Z,0.60
2023-03-02T05:08:45.425Z,0.60
2023-03-02T05:11:16.889Z,0.70
2023-03-02T05:13:43.627Z,0.70
2023-03-02T05:16:10.445Z,0.70
2023-03-02T05:18:37.256Z,0.70
2023-03-02T05:21:04.245Z,0.70
2023-03-02T05:23:31.049Z,0.70
2023-03-02T05:25:57.873Z,0.70
2023-03-02T05:28:26.342Z,0.70
2023-03-02T05:30:53.328Z,0.70
2023-03-02T05:33:20.989Z,0.70
2023-03-02T05:35:48.635Z,0.70
2023-03-02T05:38:15.921Z,0.70
2023-03-02T05:40:43.299Z,0.70
2023-03-02T05:43:12.715Z,0.70
2023-03-02T05:45:39.501Z,0.80
2023-03-02T05:48:08.457Z,0.70
2023-03-02T05:50:35.223Z,0.80
2023-03-02T05:53:02.016Z,0.80
2023-03-02T05:55:29.494Z,0.80
2023-03-02T05:57:56.700Z,0.80
2023-03-02T06:00:23.840Z,0.90
2023-03-02T06:02:50.721Z,0.90
2023-03-02T06:05:20.208Z,0.90
2023-03-02T06:07:46.956Z,0.90
2023-03-02T06:10:14.307Z,0.90
2023-03-02T06:12:41.438Z,0.90
2023-03-02T06:15:09.594Z,0.90
2023-03-02T06:17:36.720Z,0.90
2023-03-02T06:20:03.961Z,0.90
2023-03-02T06:22:30.887Z,1.10
2023-03-02T06:24:57.639Z,1.00
2023-03-02T06:27:24.386Z,1.00
2023-03-02T06:29:51.231Z,1.00
2023-03-02T06:32:18.211Z,1.00
2023-03-02T06:34:45.123Z,1.00
2023-03-02T06:37:11.929Z,1.10
2023-03-02T06:39:38.727Z,1.00
2023-03-02T06:42:05.561Z,1.10
2023-03-02T06:44:32.317Z,1.10
2023-03-02T06:46:59.101Z,1.10
2023-03-02T06:49:25.883Z,1.10
2023-03-02T06:51:52.655Z,1.20
2023-03-02T06:54:19.393Z,1.20
2023-03-02T06:56:46.177Z,1.20
2023-03-02T06:59:12.982Z,1.20
2023-03-02T07:01:39.819Z,1.20
2023-03-02T07:04:06.650Z,1.30
2023-03-02T07:06:33.464Z,1.40
2023-03-02T07:09:01.752Z,1.40
2023-03-02T07:11:28.514Z,1.40
2023-03-02T07:13:55.322Z,1.40
2023-03-02T07:16:22.178Z,1.40
2023-03-02T07:18:49.575Z,1.40
2023-03-02T07:21:16.317Z,1.30
2023-03-02T07:23:43.102Z,1.40
2023-03-02T07:26:09.946Z,1.40
2023-03-02T07:28:38.261Z,1.40
2023-03-02T07:31:06.363Z,1.40
2023-03-02T07:33:33.201Z,1.40
2023-03-02T07:36:00.310Z,1.40
2023-03-02T07:38:27.581Z,1.40
2023-03-02T07:40:54.520Z,1.40
2023-03-02T07:43:21.664Z,1.40
2023-03-02T07:45:48.442Z,1.40
2023-03-02T07:48:15.247Z,1.40
2023-03-02T07:50:42.021Z,1.40
2023-03-02T07:53:08.849Z,1.40
2023-03-02T07:55:35.655Z,1.40
2023-03-02T07:58:02.448Z,1.50
2023-03-02T08:00:29.230Z,1.40
2023-03-02T08:02:56.064Z,1.50
2023-03-02T08:05:22.835Z,1.40
2023-03-02T08:07:49.704Z,1.40
2023-03-02T08:10:16.617Z,1.40
2023-03-02T08:12:43.501Z,1.50
2023-03-02T08:15:11.453Z,1.60
2023-03-02T08:17:38.592Z,1.50
2023-03-02T08:20:05.929Z,1.60
2023-03-02T08:22:32.688Z,1.70
2023-03-02T08:24:59.464Z,1.70
2023-03-02T08:27:26.363Z,1.70
2023-03-02T08:29:53.170Z,1.70
2023-03-02T08:32:20.252Z,1.80
2023-03-02T08:34:47.026Z,1.60
2023-03-02T08:37:13.868Z,1.60
2023-03-02T08:39:40.660Z,1.70
2023-03-02T08:42:08.039Z,1.70
2023-03-02T08:44:34.866Z,1.80
2023-03-02T08:47:01.613Z,1.90
2023-03-02T08:49:28.363Z,2.00
2023-03-02T08:51:55.169Z,2.00
2023-03-02T08:54:22.691Z,2.00
2023-03-02T08:56:49.872Z,2.10
2023-03-02T08:59:17.144Z,2.10
2023-03-02T09:01:44.043Z,2.10
2023-03-02T09:04:11.338Z,2.10
2023-03-02T09:06:43.099Z,2.10
2023-03-02T09:09:11.131Z,2.20
2023-03-02T09:11:38.243Z,2.20
2023-03-02T09:14:05.510Z,2.30
2023-03-02T09:16:32.386Z,2.40
2023-03-02T09:18:59.300Z,2.40
2023-03-02T09:21:26.115Z,2.40
2023-03-02T09:23:52.962Z,2.40
2023-03-02T09:26:20.130Z,2.30
2023-03-02T09:28:46.874Z,2.40
2023-03-02T09:31:13.628Z,2.30
2023-03-02T09:33:40.599Z,2.40
2023-03-02T09:36:15.703Z,2.50
2023-03-02T09:38:42.751Z,2.50
2023-03-02T09:41:21.517Z,2.50
2023-03-02T09:44:23.753Z,2.60
2023-03-02T09:46:56.258Z,2.60
2023-03-02T09:50:00.301Z,2.60
2023-03-02T09:52:45.488Z,2.60
2023-03-02T09:55:22.438Z,2.70
2023-03-02T09:57:50.309Z,2.70
2023-03-02T10:00:29.146Z,2.70
2023-03-02T10:03:11.428Z,2.70
2023-03-02T10:05:52.485Z,2.70
2023-03-02T10:08:24.533Z,2.70
2023-03-02T10:11:13.133Z,2.80
2023-03-02T10:13:59.649Z,2.60
2023-03-02T10:16:52.544Z,2.70
2023-03-02T10:19:33.558Z,2.70
2023-03-02T10:22:11.752Z,2.90
2023-03-02T10:24:46.784Z,2.80
2023-03-02T10:27:24.851Z,2.80
2023-03-02T10:29:54.595Z,2.70
2023-03-02T10:32:29.839Z,2.70
2023-03-02T10:34:58.815Z,2.70
2023-03-02T10:37:29.865Z,2.70
2023-03-02T10:39:57.012Z,2.80
2023-03-02T10:42:38.921Z,2.90
2023-03-02T10:45:27.058Z,2.90
2023-03-02T10:48:01.463Z,3.00
2023-03-02T10:50:28.462Z,3.00
2023-03-02T10:52:59.982Z,3.00
2023-03-02T10:55:27.951Z,3.10
2023-03-02T10:58:07.426Z,3.10
2023-03-02T11:00:35.316Z,3.10
2023-03-02T11:03:06.602Z,3.10
2023-03-02T11:05:38.994Z,3.10
2023-03-02T11:08:09.993Z,3.30
2023-03-02T11:10:39.454Z,3.30
2023-03-02T11:13:38.278Z,3.40
2023-03-02T11:16:24.621Z,3.30
2023-03-02T11:18:58.605Z,3.20
2023-03-02T11:21:34.652Z,3.20
2023-03-02T11:24:42.733Z,3.20
2023-03-02T11:27:26.683Z,3.30
2023-03-02T11:29:56.136Z,3.30
2023-03-02T11:32:52.482Z,3.40
2023-03-02T11:35:28.952Z,3.30
2023-03-02T11:38:00.267Z,3.40
2023-03-02T11:40:33.135Z,3.40
2023-03-02T11:43:01.748Z,3.50
2023-03-02T11:45:32.641Z,3.50
2023-03-02T11:48:25.221Z,3.50
2023-03-02T11:50:57.361Z,3.40
2023-03-02T11:53:30.418Z,3.30
2023-03-02T11:55:57.737Z,3.40
2023-03-02T11:58:28.156Z,3.30
2023-03-02T12:00:55.852Z,3.40
2023-03-02T12:03:31.556Z,3.40
2023-03-02T12:06:05.959Z,3.40
2023-03-02T12:08:39.325Z,3.40
2023-03-02T12:11:29.189Z,3.40
2023-03-02T12:14:00.119Z,3.40
2023-03-02T12:16:39.699Z,3.40
2023-03-02T12:19:40.203Z,3.40
2023-03-02T12:22:09.149Z,3.40
2023-03-02T12:24:38.777Z,3.40
2023-03-02T12:27:08.578Z,3.40
2023-03-02T12:29:45.146Z,3.50
2023-03-02T12:32:31.915Z,3.40
2023-03-02T12:35:08.109Z,3.50
2023-03-02T12:37:52.517Z,3.50
2023-03-02T12:40:40.855Z,3.50
2023-03-02T12:43:29.294Z,3.50
2023-03-02T12:46:34.427Z,3.60
2023-03-02T12:49:01.550Z,3.60
2023-03-02T12:51:32.653Z,3.50
2023-03-02T12:54:07.670Z,3.50
2023-03-02T12:56:35.344Z,3.60
2023-03-02T12:59:02.321Z,3.50
2023-03-02T13:01:31.363Z,3.50
2023-03-02T13:03:59.096Z,3.60
2023-03-02T13:06:32.412Z,3.50
2023-03-02T13:09:00.093Z,3.50
2023-03-02T13:11:32.814Z,3.50
2023-03-02T13:14:01.175Z,3.40
2023-03-02T13:19:11.337Z,3.50
2023-03-02T13:21:39.368Z,3.50
2023-03-02T13:24:31.136Z,3.60
2023-03-02T13:27:00.384Z,3.50
2023-03-02T13:29:28.409Z,3.60
2023-03-02T13:31:55.736Z,3.60
2023-03-02T13:34:28.121Z,3.70
2023-03-02T13:36:55.584Z,3.50
2023-03-02T13:39:27.103Z,3.50
2023-03-02T13:42:02.038Z,3.50
2023-03-02T13:44:31.713Z,3.50
2023-03-02T13:46:59.519Z,3.50
2023-03-02T13:52:29.738Z,3.50
2023-03-02T13:54:56.498Z,3.50
2023-03-02T13:57:30.881Z,3.50
2023-03-02T13:59:59.508Z,3.60
2023-03-02T14:02:28.680Z,3.60
2023-03-02T14:04:56.631Z,3.50
2023-03-02T14:07:23.449Z,3.50
2023-03-02T14:09:50.208Z,3.40
2023-03-02T14:12:30.226Z,3.50
2023-03-02T14:15:00.343Z,3.40
2023-03-02T14:17:27.669Z,3.50
2023-03-02T14:19:54.703Z,3.50
2023-03-02T14:22:26.805Z,3.50
2023-03-02T14:24:53.567Z,3.50
2023-03-02T14:27:20.993Z,3.50
2023-03-02T14:32:34.589Z,3.40
2023-03-02T14:37:49.205Z,3.40
2023-03-02T14:43:09.006Z,3.40
2023-03-02T14:45:35.789Z,3.40
2023-03-02T14:48:02.567Z,3.30
2023-03-02T14:50:29.405Z,3.30
2023-03-02T14:52:58.154Z,3.30
2023-03-02T14:55:32.321Z,3.30
2023-03-02T14:58:03.432Z,3.20
2023-03-02T15:03:19.043Z,3.20
2023-03-02T15:05:58.950Z,3.10
2023-03-02T15:08:27.480Z,3.10
2023-03-02T15:10:54.265Z,3.10
2023-03-02T15:13:21.092Z,3.00
2023-03-02T15:15:47.881Z,3.00
2023-03-02T15:18:14.689Z,2.90
2023-03-02T15:20:41.493Z,2.90
2023-03-02T15:23:08.266Z,2.80
2023-03-02T15:25:35.156Z,2.80
2023-03-02T15:28:01.937Z,2.80
2023-03-02T15:30:28.689Z,2.80
2023-03-02T15:32:55.504Z,2.80
2023-03-02T15:35:22.299Z,2.80
2023-03-02T15:40:37.153Z,2.60
2023-03-02T15:45:50.841Z,2.70
2023-03-02T15:50:44.421Z,2.60
2023-03-02T15:53:11.221Z,2.60
2023-03-02T15:58:27.528Z,2.70
2023-03-02T16:00:54.318Z,2.60
2023-03-02T16:03:23.190Z,2.60
2023-03-02T16:05:49.961Z,2.50
2023-03-02T16:08:16.812Z,2.50
2023-03-02T16:10:43.781Z,2.40
2023-03-02T16:13:12.230Z,2.30
2023-03-02T16:15:40.826Z,2.30
2023-03-02T16:18:08.487Z,2.30
2023-03-02T16:20:39.410Z,2.40
2023-03-02T16:23:07.731Z,2.30
2023-03-02T16:25:39.707Z,2.40
2023-03-02T16:28:07.564Z,2.30
2023-03-02T16:33:21.854Z,2.30
2023-03-02T16:35:49.373Z,2.30
2023-03-02T16:38:17.010Z,2.20
2023-03-02T16:40:43.769Z,2.20
2023-03-02T16:43:10.518Z,2.20
2023-03-02T16:45:37.521Z,2.10
2023-03-02T16:48:05.453Z,2.20
2023-03-02T16:50:32.736Z,2.10
2023-03-02T16:52:59.792Z,2.10
2023-03-02T16:55:27.317Z,2.10
2023-03-02T16:57:54.096Z,2.10
2023-03-02T17:00:21.911Z,2.10
2023-03-02T17:02:49.609Z,2.00
2023-03-02T17:05:18.842Z,2.00
2023-03-02T17:07:45.979Z,2.00
2023-03-02T17:10:17.494Z,1.90
2023-03-02T17:12:44.681Z,1.90
2023-03-02T17:15:13.635Z,2.00
2023-03-02T17:17:41.558Z,2.00
2023-03-02T17:20:09.940Z,2.00
2023-03-02T17:22:36.779Z,1.90
2023-03-02T17:25:04.937Z,1.90
2023-03-02T17:27:31.869Z,1.90
2023-03-02T17:29:58.652Z,1.80
2023-03-02T17:32:25.467Z,1.80
2023-03-02T17:34:52.264Z,1.80
2023-03-02T17:40:07.388Z,1.80
2023-03-02T17:45:26.532Z,1.80
2023-03-02T17:50:41.876Z,1.70
2023-03-02T17:55:55.373Z,1.70
2023-03-02T17:58:22.244Z,1.70
2023-03-02T18:00:49.049Z,1.70
2023-03-02T18:03:15.912Z,1.70
2023-03-02T18:05:43.053Z,1.70
2023-03-02T18:08:09.843Z,1.60
2023-03-02T18:10:36.602Z,1.60
2023-03-02T18:13:03.357Z,1.70
2023-03-02T18:15:30.250Z,1.70
2023-03-02T18:20:44.183Z,1.60
2023-03-02T18:25:59.280Z,1.50
2023-03-02T18:31:15.417Z,1.40
2023-03-02T18:33:42.610Z,1.50
2023-03-02T18:36:09.861Z,1.60
2023-03-02T18:38:37.304Z,1.50
2023-03-02T18:41:06.001Z,1.50
2023-03-02T18:43:35.324Z,1.60
2023-03-02T18:46:03.193Z,1.60
2023-03-02T18:48:30.659Z,1.60
2023-03-02T18:50:57.926Z,1.50
2023-03-02T18:53:25.305Z,1.50
2023-03-02T18:55:55.137Z,1.50
2023-03-02T18:58:23.770Z,1.50
2023-03-02T19:00:52.046Z,1.50
2023-03-02T19:03:18.915Z,1.60
2023-03-02T19:05:46.215Z,1.60
2023-03-02T19:08:13.020Z,1.60
2023-03-02T19:10:40.185Z,1.50
2023-03-02T19:13:07.005Z,1.50
2023-03-02T19:15:33.849Z,1.50
2023-03-02T19:18:00.849Z,1.50
2023-03-02T19:20:27.732Z,1.40
2023-03-02T19:22:55.142Z,1.50
2023-03-02T19:25:22.404Z,1.50
2023-03-02T19:27:49.222Z,1.50
2023-03-02T19:30:23.786Z,1.40
2023-03-02T19:32:52.348Z,1.30
2023-03-02T19:35:20.896Z,1.30
2023-03-02T19:37:58.858Z,1.30
2023-03-02T19:40:29.458Z,1.50
2023-03-02T19:42:56.726Z,1.40
2023-03-02T19:45:29.748Z,1.40
2023-03-02T19:47:57.786Z,1.40
2023-03-02T19:50:26.178Z,1.40
2023-03-02T19:52:53.323Z,1.40
2023-03-02T19:55:20.890Z,1.40
2023-03-02T19:57:48.000Z,1.30
2023-03-02T20:00:16.109Z,1.30
2023-03-02T20:02:43.102Z,1.30
2023-03-02T20:05:10.914Z,1.30
2023-03-02T20:07:40.423Z,1.20
2023-03-02T20:10:09.624Z,1.30
2023-03-02T20:12:36.754Z,1.30
2023-03-02T20:15:05.340Z,1.30
2023-03-02T20:17:32.173Z,1.30
2023-03-02T20:19:58.948Z,1.40
2023-03-02T20:22:25.825Z,1.30
2023-03-02T20:24:52.827Z,1.40
2023-03-02T20:30:09.015Z,1.40
2023-03-02T20:35:24.261Z,1.30
2023-03-02T20:40:38.561Z,1.20
2023-03-02T20:45:52.433Z,1.20
2023-03-02T20:48:19.604Z,1.20
2023-03-02T20:50:46.413Z,1.10
2023-03-02T20:53:13.511Z,1.10
2023-03-02T20:55:40.523Z,1.00
2023-03-02T20:58:08.134Z,1.10
2023-03-02T21:00:36.445Z,1.20
2023-03-02T21:03:04.956Z,1.10
2023-03-02T21:05:33.085Z,1.00
2023-03-02T21:08:01.102Z,1.00
2023-03-02T21:10:33.045Z,0.90
2023-03-02T21:13:00.029Z,0.90
2023-03-02T21:15:27.517Z,0.90
2023-03-02T21:17:55.181Z,0.90
2023-03-02T21:20:24.047Z,0.80
2023-03-02T21:22:50.926Z,0.90
2023-03-02T21:25:18.284Z,0.90
2023-03-02T21:27:45.281Z,0.90
2023-03-02T21:30:18.890Z,0.90
2023-03-02T21:32:46.970Z,0.90
2023-03-02T21:35:17.016Z,1.00
2023-03-02T21:37:44.032Z,1.00
2023-03-02T21:43:06.037Z,1.00
2023-03-02T21:48:22.955Z,0.90
2023-03-02T21:53:38.498Z,0.80
2023-03-02T21:58:55.313Z,0.70
2023-03-02T22:04:09.929Z,0.80
2023-03-02T22:06:36.830Z,0.80
2023-03-02T22:09:04.416Z,0.90
2023-03-02T22:11:37.593Z,0.80
2023-03-02T22:16:59.626Z,0.70
2023-03-02T22:22:24.434Z,0.70
2023-03-02T22:24:52.117Z,0.70
2023-03-02T22:27:25.113Z,0.70
2023-03-02T22:32:23.431Z,0.70
2023-03-02T22:34:52.752Z,0.70
2023-03-02T22:37:39.817Z,0.70
2023-03-02T22:43:24.687Z,0.60
2023-03-02T22:45:52.867Z,0.50
2023-03-02T22:48:22.234Z,0.50
2023-03-02T22:50:50.191Z,0.50
2023-03-02T22:53:25.434Z,0.60
2023-03-02T22:55:57.543Z,0.60
2023-03-02T23:01:24.098Z,0.60
2023-03-02T23:04:01.448Z,0.60
2023-03-02T23:06:31.804Z,0.60
2023-03-02T23:09:04.453Z,0.60
2023-03-02T23:11:37.522Z,0.70
2023-03-02T23:14:20.367Z,0.60
2023-03-02T23:16:52.465Z,0.60
2023-03-02T23:19:19.378Z,0.60
2023-03-02T23:21:48.256Z,0.60
2023-03-02T23:24:15.179Z,0.50
2023-03-02T23:26:41.953Z,0.50
2023-03-02T23:29:08.777Z,0.50
2023-03-02T23:31:35.638Z,0.40
2023-03-02T23:34:02.417Z,0.40
2023-03-02T23:36:29.213Z,0.40
2023-03-02T23:38:56.125Z,0.30
2023-03-02T23:41:22.998Z,0.30
2023-03-02T23:43:49.981Z,0.30
2023-03-02T23:46:16.891Z,0.30
2023-03-02T23:48:44.124Z,0.30
2023-03-02T23:51:11.185Z,0.40
2023-03-02T23:53:37.988Z,0.30
2023-03-02T23:58:51.760Z,0.40
